createdAt,value
2018-10-05T00:01:10.961Z,48.64
2018-10-05T00:03:36.470Z,48.64
2018-10-05T00:06:01.938Z,48.63
2018-10-05T00:08:27.415Z,48.64
2018-10-05T00:10:52.901Z,48.64
2018-10-05T00:13:18.369Z,48.56
2018-10-05T00:15:43.878Z,48.64
2018-10-05T00:18:09.375Z,48.63
2018-10-05T00:20:34.925Z,48.65
2018-10-05T00:23:00.340Z,48.63
2018-10-05T00:25:25.837Z,48.58
2018-10-05T00:27:51.341Z,48.59
2018-10-05T00:30:16.831Z,48.64
2018-10-05T00:32:42.296Z,48.58
2018-10-05T00:35:07.773Z,48.62
2018-10-05T00:37:33.270Z,48.63
2018-10-05T00:39:58.735Z,48.61
2018-10-05T00:42:24.213Z,48.54
2018-10-05T00:44:49.703Z,48.56
2018-10-05T00:47:15.173Z,48.54
2018-10-05T00:49:40.644Z,48.56
2018-10-05T00:52:06.111Z,48.57
2018-10-05T00:54:31.605Z,48.54
2018-10-05T00:56:57.099Z,48.52
2018-10-05T00:59:22.568Z,48.55
2018-10-05T01:01:48.066Z,48.59
2018-10-05T01:04:13.540Z,48.52
2018-10-05T01:06:39.009Z,48.53
2018-10-05T01:09:04.475Z,48.56
2018-10-05T01:11:30.031Z,48.52
2018-10-05T01:13:55.461Z,48.50
2018-10-05T01:16:20.957Z,48.50
2018-10-05T01:18:46.424Z,48.48
2018-10-05T01:21:11.920Z,48.58
2018-10-05T01:23:37.395Z,48.50
2018-10-05T01:26:02.877Z,48.51
2018-10-05T01:28:28.353Z,48.46
2018-10-05T01:30:53.844Z,48.54
2018-10-05T01:33:19.312Z,48.57
2018-10-05T01:35:44.787Z,48.55
2018-10-05T01:38:10.256Z,48.55
2018-10-05T01:40:35.755Z,48.50
2018-10-05T01:43:01.225Z,48.52
2018-10-05T01:45:26.694Z,48.53
2018-10-05T01:47:52.164Z,48.47
2018-10-05T01:50:17.642Z,48.54
2018-10-05T01:52:43.118Z,48.44
2018-10-05T01:55:08.613Z,48.39
2018-10-05T01:57:34.104Z,48.42
2018-10-05T01:59:59.571Z,48.49
2018-10-05T02:02:25.107Z,48.51
2018-10-05T02:04:50.555Z,48.45
2018-10-05T02:07:16.019Z,48.40
2018-10-05T02:09:41.488Z,48.42
2018-10-05T02:12:06.966Z,48.47
2018-10-05T02:14:32.433Z,48.42
2018-10-05T02:16:57.925Z,48.36
2018-10-05T02:19:23.398Z,48.43
2018-10-05T02:21:48.869Z,48.34
2018-10-05T02:24:14.336Z,48.39
2018-10-05T02:26:39.809Z,48.33
2018-10-05T02:29:05.277Z,48.40
2018-10-05T02:31:30.771Z,48.48
2018-10-05T02:33:56.243Z,48.37
2018-10-05T02:36:21.795Z,48.37
2018-10-05T02:38:47.271Z,48.41
2018-10-05T02:41:12.737Z,48.31
2018-10-05T02:43:38.231Z,48.34
2018-10-05T02:46:03.705Z,48.33
2018-10-05T02:48:29.178Z,48.35
2018-10-05T02:50:54.644Z,48.32
2018-10-05T02:53:20.162Z,48.31
2018-10-05T02:55:45.637Z,48.34
2018-10-05T02:58:11.142Z,48.27
2018-10-05T03:00:36.629Z,48.32
2018-10-05T03:03:02.101Z,48.31
2018-10-05T03:05:27.592Z,48.34
2018-10-05T03:07:53.086Z,48.42
2018-10-05T03:10:18.582Z,48.33
2018-10-05T03:12:44.072Z,48.32
2018-10-05T03:15:09.580Z,48.25
2018-10-05T03:17:35.044Z,48.35
2018-10-05T03:20:00.539Z,48.22
2018-10-05T03:22:26.013Z,48.29
2018-10-05T03:24:51.517Z,48.34
2018-10-05T03:27:17.012Z,48.30
2018-10-05T03:29:42.555Z,48.27
2018-10-05T03:32:08.031Z,48.28
2018-10-05T03:34:33.522Z,48.26
2018-10-05T03:36:58.996Z,48.29
2018-10-05T03:39:24.491Z,48.28
2018-10-05T03:41:49.994Z,48.31
2018-10-05T03:44:15.525Z,48.36
2018-10-05T03:46:40.937Z,48.32
2018-10-05T03:49:06.434Z,48.21
2018-10-05T03:51:31.908Z,48.24
2018-10-05T03:53:57.397Z,48.11
2018-10-05T03:56:22.867Z,48.22
2018-10-05T03:58:48.367Z,48.21
2018-10-05T04:01:13.862Z,48.28
2018-10-05T04:03:39.360Z,48.16
2018-10-05T04:06:04.849Z,48.33
2018-10-05T04:08:30.353Z,48.26
2018-10-05T04:10:55.852Z,48.32
2018-10-05T04:13:21.342Z,48.26
2018-10-05T04:15:46.875Z,48.21
2018-10-05T04:18:12.341Z,48.26
2018-10-05T04:20:37.870Z,48.28
2018-10-05T04:23:03.337Z,48.14
2018-10-05T04:25:28.815Z,48.14
2018-10-05T04:27:54.285Z,48.27
2018-10-05T04:30:19.784Z,48.22
2018-10-05T04:32:45.279Z,48.09
2018-10-05T04:35:10.857Z,48.12
2018-10-05T04:37:36.311Z,48.14
2018-10-05T04:40:01.811Z,48.23
2018-10-05T04:42:27.289Z,48.22
2018-10-05T04:44:52.786Z,48.20
2018-10-05T04:47:18.255Z,48.06
2018-10-05T04:49:43.908Z,48.09
2018-10-05T04:52:09.273Z,47.90
2018-10-05T04:54:34.748Z,48.00
2018-10-05T04:57:00.308Z,48.03
2018-10-05T04:59:25.715Z,48.07
2018-10-05T05:01:51.211Z,48.05
2018-10-05T05:04:16.688Z,48.06
2018-10-05T05:06:42.158Z,48.04
2018-10-05T05:09:07.692Z,48.01
2018-10-05T05:11:33.185Z,48.05
2018-10-05T05:13:58.664Z,48.02
2018-10-05T05:16:24.137Z,48.12
2018-10-05T05:18:49.647Z,48.17
2018-10-05T05:21:15.143Z,48.11
2018-10-05T05:23:40.639Z,48.09
2018-10-05T05:26:06.129Z,48.06
2018-10-05T05:28:31.645Z,48.05
2018-10-05T05:30:57.130Z,48.13
2018-10-05T05:33:22.674Z,48.09
2018-10-05T05:35:48.173Z,48.26
2018-10-05T05:38:13.670Z,48.30
2018-10-05T05:40:39.191Z,48.38
2018-10-05T05:43:04.833Z,48.46
2018-10-05T05:45:30.327Z,48.42
2018-10-05T05:47:56.195Z,48.54
2018-10-05T05:50:21.672Z,48.56
2018-10-05T05:52:47.179Z,48.49
2018-10-05T05:55:12.685Z,48.46
2018-10-05T05:57:38.162Z,48.45
2018-10-05T06:00:03.669Z,48.41
2018-10-05T06:02:29.162Z,48.48
2018-10-05T06:04:54.649Z,48.43
2018-10-05T06:07:20.138Z,48.43
2018-10-05T06:09:45.642Z,48.56
2018-10-05T06:12:11.155Z,48.57
2018-10-05T06:14:36.612Z,48.61
2018-10-05T06:17:02.084Z,48.68
2018-10-05T06:19:27.586Z,48.87
2018-10-05T06:21:53.311Z,48.83
2018-10-05T06:24:18.536Z,48.71
2018-10-05T06:26:44.043Z,48.59
2018-10-05T06:29:09.533Z,48.59
2018-10-05T06:31:35.122Z,48.60
2018-10-05T06:34:00.806Z,48.62
2018-10-05T06:36:26.337Z,48.66
2018-10-05T06:38:51.984Z,48.90
2018-10-05T06:41:17.463Z,48.89
2018-10-05T06:43:43.005Z,48.67
2018-10-05T06:46:08.537Z,48.64
2018-10-05T06:48:34.028Z,48.59
2018-10-05T06:50:59.693Z,48.61
2018-10-05T06:53:25.231Z,48.77
2018-10-05T06:55:50.699Z,48.67
2018-10-05T06:58:16.189Z,48.83
2018-10-05T07:00:41.674Z,48.96
2018-10-05T07:03:07.226Z,49.25
2018-10-05T07:05:32.699Z,49.23
2018-10-05T07:07:58.260Z,49.25
2018-10-05T07:10:23.742Z,49.36
2018-10-05T07:12:49.220Z,49.76
2018-10-05T07:15:14.739Z,49.88
2018-10-05T07:17:40.279Z,49.75
2018-10-05T07:20:05.777Z,49.95
2018-10-05T07:22:31.333Z,50.03
2018-10-05T07:24:56.779Z,49.87
2018-10-05T07:27:22.280Z,50.06
2018-10-05T07:29:47.778Z,49.84
2018-10-05T07:32:13.326Z,50.08
2018-10-05T07:34:39.404Z,49.88
2018-10-05T07:37:05.178Z,49.81
2018-10-05T07:39:42.639Z,50.04
2018-10-05T07:42:08.145Z,49.52
2018-10-05T07:44:33.612Z,49.50
2018-10-05T07:46:59.108Z,50.03
2018-10-05T07:49:24.644Z,49.41
2018-10-05T07:51:50.180Z,49.65
2018-10-05T07:54:15.591Z,49.43
2018-10-05T07:56:41.073Z,49.98
2018-10-05T07:59:06.569Z,49.54
2018-10-05T08:01:32.071Z,49.74
2018-10-05T08:03:58.695Z,49.85
2018-10-05T08:06:23.094Z,49.96
2018-10-05T08:08:48.588Z,49.79
2018-10-05T08:11:14.070Z,50.06
2018-10-05T08:13:39.563Z,49.89
2018-10-05T08:16:05.073Z,49.92
2018-10-05T08:18:30.537Z,49.77
2018-10-05T08:20:56.213Z,49.96
2018-10-05T08:23:21.688Z,50.10
2018-10-05T08:25:47.161Z,50.03
2018-10-05T08:28:12.727Z,50.16
2018-10-05T08:30:38.332Z,50.23
2018-10-05T08:33:03.830Z,50.23
2018-10-05T08:35:29.323Z,50.27
2018-10-05T08:37:54.827Z,50.12
2018-10-05T08:40:20.437Z,50.30
2018-10-05T08:42:45.868Z,50.32
2018-10-05T08:45:11.365Z,49.85
2018-10-05T08:47:36.837Z,50.24
2018-10-05T08:50:02.318Z,50.09
2018-10-05T08:52:28.043Z,50.03
2018-10-05T08:54:53.540Z,49.67
2018-10-05T08:57:19.077Z,50.36
2018-10-05T08:59:44.579Z,50.10
2018-10-05T09:02:10.082Z,50.45
2018-10-05T09:04:35.575Z,50.14
2018-10-05T09:07:01.060Z,50.16
2018-10-05T09:09:26.561Z,50.94
2018-10-05T09:11:52.048Z,50.83
2018-10-05T09:14:17.555Z,50.68
2018-10-05T09:16:43.054Z,50.85
2018-10-05T09:19:08.689Z,50.90
2018-10-05T09:21:34.210Z,50.55
2018-10-05T09:23:59.778Z,50.94
2018-10-05T09:26:25.207Z,50.64
2018-10-05T09:28:50.703Z,51.01
2018-10-05T09:31:16.211Z,50.88
2018-10-05T09:33:41.712Z,51.00
2018-10-05T09:36:07.222Z,50.55
2018-10-05T09:38:32.707Z,50.88
2018-10-05T09:40:58.177Z,50.98
2018-10-05T09:43:23.640Z,50.99
2018-10-05T09:45:49.136Z,51.02
2018-10-05T09:48:14.607Z,50.99
2018-10-05T09:50:40.082Z,50.84
2018-10-05T09:53:05.606Z,50.88
2018-10-05T09:55:31.094Z,50.21
2018-10-05T09:57:56.585Z,50.81
2018-10-05T10:00:22.083Z,51.03
2018-10-05T10:02:47.614Z,50.72
2018-10-05T10:05:13.124Z,50.90
2018-10-05T10:07:38.623Z,50.91
2018-10-05T10:10:04.112Z,50.84
2018-10-05T10:12:29.597Z,50.92
2018-10-05T10:14:55.108Z,50.50
2018-10-05T10:17:20.620Z,50.39
2018-10-05T10:19:46.112Z,50.46
2018-10-05T10:22:11.590Z,50.43
2018-10-05T10:24:37.108Z,50.29
2018-10-05T10:27:02.632Z,50.17
2018-10-05T10:29:28.138Z,50.20
2018-10-05T10:31:53.580Z,50.00
2018-10-05T10:34:19.107Z,49.75
2018-10-05T10:36:44.563Z,49.93
2018-10-05T10:39:10.033Z,49.87
2018-10-05T10:41:35.527Z,49.85
2018-10-05T10:44:01.029Z,49.96
2018-10-05T10:46:26.535Z,49.95
2018-10-05T10:48:52.029Z,49.90
2018-10-05T10:51:17.521Z,49.76
2018-10-05T10:53:43.016Z,50.02
2018-10-05T10:56:08.542Z,49.64
2018-10-05T10:58:34.011Z,50.06
2018-10-05T11:00:59.491Z,49.72
2018-10-05T11:03:24.989Z,50.00
2018-10-05T11:05:50.504Z,49.93
2018-10-05T11:08:16.001Z,49.79
2018-10-05T11:10:41.490Z,49.57
2018-10-05T11:13:06.991Z,49.61
2018-10-05T11:15:32.460Z,49.75
2018-10-05T11:17:57.931Z,49.40
2018-10-05T11:20:23.425Z,49.51
2018-10-05T11:22:48.931Z,49.43
2018-10-05T11:25:14.462Z,49.74
2018-10-05T11:27:39.932Z,49.43
2018-10-05T11:30:05.406Z,49.45
2018-10-05T11:32:30.894Z,49.53
2018-10-05T11:34:56.399Z,49.72
2018-10-05T11:37:21.894Z,49.60
2018-10-05T11:39:47.412Z,49.55
2018-10-05T11:42:12.893Z,49.46
2018-10-05T11:44:38.369Z,49.53
2018-10-05T11:47:03.842Z,49.39
2018-10-05T11:49:29.335Z,49.40
2018-10-05T11:51:54.843Z,49.39
2018-10-05T11:54:20.340Z,49.38
2018-10-05T11:56:45.814Z,49.51
2018-10-05T11:59:11.299Z,49.35
2018-10-05T12:01:36.768Z,49.27
2018-10-05T12:04:02.297Z,49.35
2018-10-05T12:06:27.802Z,49.47
2018-10-05T12:08:53.317Z,49.34
2018-10-05T12:11:18.830Z,49.37
2018-10-05T12:13:44.364Z,49.31
2018-10-05T12:16:09.846Z,49.24
2018-10-05T12:18:35.324Z,49.11
2018-10-05T12:21:00.817Z,49.25
2018-10-05T12:23:26.318Z,49.23
2018-10-05T12:25:51.815Z,49.20
2018-10-05T12:28:17.333Z,49.15
2018-10-05T12:30:42.808Z,49.14
2018-10-05T12:33:08.337Z,49.04
2018-10-05T12:35:33.778Z,49.05
2018-10-05T12:37:59.278Z,48.93
2018-10-05T12:40:24.781Z,49.01
2018-10-05T12:42:50.277Z,48.90
2018-10-05T12:45:15.791Z,48.97
2018-10-05T12:47:41.269Z,48.92
2018-10-05T12:50:06.815Z,48.87
2018-10-05T12:52:32.299Z,48.88
2018-10-05T12:54:57.831Z,48.83
2018-10-05T12:57:23.315Z,48.87
2018-10-05T12:59:48.788Z,48.84
2018-10-05T13:02:14.266Z,48.68
2018-10-05T13:04:39.768Z,48.74
2018-10-05T13:07:05.250Z,48.63
2018-10-05T13:09:30.754Z,48.73
2018-10-05T13:11:56.258Z,48.81
2018-10-05T13:14:21.827Z,49.03
2018-10-05T13:16:47.303Z,49.25
2018-10-05T13:19:12.788Z,49.27
2018-10-05T13:21:38.256Z,49.35
2018-10-05T13:24:03.755Z,49.05
2018-10-05T13:26:29.228Z,49.30
2018-10-05T13:28:54.739Z,49.26
2018-10-05T13:31:20.214Z,49.28
2018-10-05T13:33:46.435Z,49.19
2018-10-05T13:36:11.906Z,49.12
2018-10-05T13:38:37.400Z,48.80
2018-10-05T13:41:02.901Z,48.77
2018-10-05T13:43:28.392Z,48.93
2018-10-05T13:45:53.886Z,48.79
2018-10-05T13:48:19.385Z,48.75
2018-10-05T13:50:44.895Z,48.82
2018-10-05T13:53:10.374Z,48.74
2018-10-05T13:55:35.937Z,48.81
2018-10-05T13:58:01.970Z,48.81
2018-10-05T14:00:27.458Z,48.76
2018-10-05T14:02:52.984Z,48.71
2018-10-05T14:05:18.434Z,48.67
2018-10-05T14:07:43.902Z,48.57
2018-10-05T14:10:09.401Z,48.63
2018-10-05T14:12:34.903Z,48.60
2018-10-05T14:15:00.416Z,48.57
2018-10-05T14:17:25.895Z,48.58
2018-10-05T14:19:51.473Z,48.64
2018-10-05T14:22:16.974Z,48.63
2018-10-05T14:24:42.476Z,48.67
2018-10-05T14:27:07.952Z,48.58
2018-10-05T14:29:33.465Z,48.77
2018-10-05T14:31:58.964Z,48.76
2018-10-05T14:34:24.433Z,48.79
2018-10-05T14:36:49.951Z,48.83
2018-10-05T14:39:15.445Z,48.73
2018-10-05T14:41:41.035Z,48.89
2018-10-05T14:44:06.440Z,48.90
2018-10-05T14:46:31.921Z,48.79
2018-10-05T14:48:58.025Z,48.91
2018-10-05T14:51:23.971Z,49.19
2018-10-05T14:53:49.644Z,49.28
2018-10-05T14:56:15.312Z,49.39
2018-10-05T14:58:40.791Z,49.28
2018-10-05T15:01:06.286Z,49.29
2018-10-05T15:03:31.782Z,49.40
2018-10-05T15:05:57.310Z,49.52
2018-10-05T15:08:22.776Z,49.35
2018-10-05T15:10:48.265Z,49.50
2018-10-05T15:13:13.793Z,49.24
2018-10-05T15:15:39.236Z,49.72
2018-10-05T15:18:04.738Z,49.41
2018-10-05T15:20:30.238Z,49.69
2018-10-05T15:22:55.740Z,49.84
2018-10-05T15:25:21.231Z,49.80
2018-10-05T15:27:46.715Z,49.61
2018-10-05T15:30:12.223Z,50.04
2018-10-05T15:32:37.773Z,49.88
2018-10-05T15:35:03.218Z,49.62
2018-10-05T15:37:28.733Z,49.82
2018-10-05T15:39:54.275Z,49.67
2018-10-05T15:42:19.751Z,49.65
2018-10-05T15:44:45.261Z,49.63
2018-10-05T15:47:10.788Z,50.09
2018-10-05T15:49:36.277Z,49.64
2018-10-05T15:52:01.782Z,49.74
2018-10-05T15:54:35.034Z,49.77
2018-10-05T15:57:00.954Z,49.67
2018-10-05T15:59:47.508Z,49.76
2018-10-05T16:02:13.333Z,49.69
2018-10-05T16:04:38.806Z,49.48
2018-10-05T16:07:04.304Z,49.40
2018-10-05T16:09:29.782Z,49.56
2018-10-05T16:11:55.339Z,49.46
2018-10-05T16:14:20.824Z,50.32
2018-10-05T16:16:46.297Z,50.83
2018-10-05T16:19:11.841Z,51.52
2018-10-05T16:21:37.317Z,50.79
2018-10-05T16:24:02.790Z,51.61
2018-10-05T16:26:28.269Z,51.17
2018-10-05T16:28:54.413Z,51.97
2018-10-05T16:31:19.900Z,51.26
2018-10-05T16:33:45.380Z,51.71
2018-10-05T16:36:10.858Z,51.33
2018-10-05T16:38:36.337Z,51.55
2018-10-05T16:41:01.840Z,51.71
2018-10-05T16:43:27.384Z,53.28
2018-10-05T16:45:52.882Z,54.52
2018-10-05T16:48:20.054Z,55.97
2018-10-05T16:50:45.580Z,53.70
2018-10-05T16:53:11.074Z,54.57
2018-10-05T16:55:36.614Z,53.47
2018-10-05T16:58:02.092Z,55.17
2018-10-05T17:00:27.581Z,53.20
2018-10-05T17:02:53.076Z,52.78
2018-10-05T17:05:18.581Z,52.53
2018-10-05T17:07:44.908Z,53.08
2018-10-05T17:10:10.538Z,52.87
2018-10-05T17:12:36.034Z,52.13
2018-10-05T17:15:01.511Z,52.02
2018-10-05T17:17:26.987Z,52.39
2018-10-05T17:19:52.473Z,51.76
2018-10-05T17:22:17.977Z,51.89
2018-10-05T17:24:43.546Z,51.38
2018-10-05T17:27:09.057Z,51.48
2018-10-05T17:29:34.568Z,51.22
2018-10-05T17:32:00.133Z,51.09
2018-10-05T17:34:25.631Z,51.07
2018-10-05T17:36:51.099Z,51.53
2018-10-05T17:39:16.702Z,51.43
2018-10-05T17:41:42.199Z,50.98
2018-10-05T17:44:07.700Z,51.05
2018-10-05T17:46:33.204Z,51.15
2018-10-05T17:48:59.159Z,51.15
2018-10-05T17:51:24.821Z,51.03
2018-10-05T17:53:50.312Z,50.89
2018-10-05T17:56:15.829Z,51.25
2018-10-05T17:58:41.318Z,51.20
2018-10-05T18:01:06.889Z,50.96
2018-10-05T18:03:32.368Z,50.91
2018-10-05T18:05:58.682Z,50.88
2018-10-05T18:08:24.189Z,50.78
2018-10-05T18:10:49.644Z,50.73
2018-10-05T18:13:15.134Z,50.63
2018-10-05T18:15:40.628Z,50.69
2018-10-05T18:18:06.110Z,50.41
2018-10-05T18:20:31.585Z,50.76
2018-10-05T18:22:59.514Z,50.90
2018-10-05T18:25:25.591Z,50.82
2018-10-05T18:27:51.119Z,50.77
2018-10-05T18:30:16.581Z,50.89
2018-10-05T18:32:42.091Z,50.94
2018-10-05T18:35:07.628Z,50.68
2018-10-05T18:37:33.128Z,50.95
2018-10-05T18:39:58.602Z,50.86
2018-10-05T18:42:24.157Z,50.84
2018-10-05T18:44:50.403Z,50.82
2018-10-05T18:47:16.277Z,50.45
2018-10-05T18:49:42.201Z,50.84
2018-10-05T18:52:08.163Z,50.69
2018-10-05T18:54:43.164Z,50.92
2018-10-05T18:57:10.041Z,50.63
2018-10-05T18:59:39.471Z,50.19
2018-10-05T19:02:05.941Z,50.45
2018-10-05T19:04:31.539Z,50.59
2018-10-05T19:07:01.261Z,50.59
2018-10-05T19:09:28.623Z,50.57
2018-10-05T19:11:54.125Z,50.68
2018-10-05T19:14:19.781Z,50.67
2018-10-05T19:16:45.410Z,50.70
2018-10-05T19:19:11.299Z,50.49
2018-10-05T19:21:38.374Z,50.76
2018-10-05T19:24:07.900Z,50.80
2018-10-05T19:26:33.568Z,50.64
2018-10-05T19:29:07.606Z,50.59
2018-10-05T19:31:33.247Z,50.86
2018-10-05T19:33:58.846Z,50.67
2018-10-05T19:36:24.378Z,50.27
2018-10-05T19:38:49.857Z,50.54
2018-10-05T19:41:15.338Z,50.62
2018-10-05T19:43:40.836Z,50.55
2018-10-05T19:46:06.319Z,50.42
2018-10-05T19:48:31.795Z,50.32
2018-10-05T19:50:57.307Z,50.39
2018-10-05T19:53:22.886Z,50.33
2018-10-05T19:55:48.274Z,50.32
2018-10-05T19:58:13.748Z,50.21
2018-10-05T20:00:39.255Z,50.20
2018-10-05T20:03:04.730Z,50.25
2018-10-05T20:05:30.231Z,50.26
2018-10-05T20:07:55.700Z,50.17
2018-10-05T20:10:21.175Z,50.20
2018-10-05T20:12:46.691Z,50.14
2018-10-05T20:15:12.568Z,50.40
2018-10-05T20:17:38.932Z,50.23
2018-10-05T20:20:04.354Z,50.14
2018-10-05T20:22:29.869Z,50.03
2018-10-05T20:24:55.345Z,50.16
2018-10-05T20:27:20.817Z,50.16
2018-10-05T20:29:46.298Z,49.79
2018-10-05T20:32:11.774Z,49.88
2018-10-05T20:34:37.274Z,49.77
2018-10-05T20:37:02.954Z,49.79
2018-10-05T20:39:28.255Z,49.80
2018-10-05T20:41:53.771Z,49.75
2018-10-05T20:44:19.272Z,49.70
2018-10-05T20:46:44.783Z,49.73
2018-10-05T20:49:10.274Z,49.74
2018-10-05T20:51:35.861Z,49.73
2018-10-05T20:54:01.321Z,49.73
2018-10-05T20:56:26.818Z,49.67
2018-10-05T20:58:52.289Z,49.67
2018-10-05T21:01:17.788Z,49.55
2018-10-05T21:03:43.291Z,49.44
2018-10-05T21:06:08.827Z,49.35
2018-10-05T21:08:34.302Z,49.25
2018-10-05T21:10:59.773Z,49.22
2018-10-05T21:13:25.272Z,49.29
2018-10-05T21:15:50.749Z,49.29
2018-10-05T21:18:16.222Z,49.08
2018-10-05T21:20:41.696Z,49.27
2018-10-05T21:23:07.164Z,49.31
2018-10-05T21:25:32.637Z,49.20
2018-10-05T21:27:58.111Z,49.15
2018-10-05T21:30:23.587Z,49.04
2018-10-05T21:32:49.105Z,49.22
2018-10-05T21:35:14.576Z,49.22
2018-10-05T21:37:40.070Z,49.23
2018-10-05T21:40:05.569Z,49.14
2018-10-05T21:42:31.081Z,49.02
2018-10-05T21:44:56.645Z,49.06
2018-10-05T21:47:22.059Z,48.95
2018-10-05T21:49:47.575Z,48.89
2018-10-05T21:52:13.048Z,49.02
2018-10-05T21:54:38.555Z,48.96
2018-10-05T21:57:04.051Z,48.89
2018-10-05T21:59:29.530Z,48.68
2018-10-05T22:01:55.003Z,48.68
2018-10-05T22:04:20.485Z,48.94
2018-10-05T22:06:45.955Z,48.82
2018-10-05T22:09:11.461Z,48.61
2018-10-05T22:11:36.932Z,48.74
2018-10-05T22:14:02.423Z,48.76
2018-10-05T22:16:27.927Z,48.78
2018-10-05T22:18:53.403Z,48.87
2018-10-05T22:21:18.873Z,48.77
2018-10-05T22:23:44.375Z,48.40
2018-10-05T22:26:09.871Z,48.68
2018-10-05T22:28:35.373Z,48.58
2018-10-05T22:31:00.891Z,48.28
2018-10-05T22:33:26.402Z,48.29
2018-10-05T22:35:51.901Z,48.53
2018-10-05T22:38:17.394Z,48.24
2018-10-05T22:40:42.901Z,48.28
2018-10-05T22:43:08.389Z,48.30
2018-10-05T22:45:33.882Z,48.39
2018-10-05T22:47:59.374Z,48.24
2018-10-05T22:50:24.868Z,48.19
2018-10-05T22:52:50.356Z,48.35
2018-10-05T22:55:15.856Z,48.22
2018-10-05T22:57:41.346Z,47.94
2018-10-05T23:00:06.842Z,48.48
2018-10-05T23:02:32.339Z,47.96
2018-10-05T23:04:57.839Z,47.93
2018-10-05T23:07:23.343Z,48.02
2018-10-05T23:09:48.843Z,48.31
2018-10-05T23:12:14.343Z,47.83
2018-10-05T23:14:39.836Z,48.15
2018-10-05T23:17:05.327Z,47.95
2018-10-05T23:19:30.835Z,47.77
2018-10-05T23:21:56.409Z,48.07
2018-10-05T23:24:21.905Z,48.08
2018-10-05T23:26:47.421Z,47.71
2018-10-05T23:29:12.932Z,48.25
2018-10-05T23:31:38.427Z,48.21
2018-10-05T23:34:03.929Z,48.17
2018-10-05T23:36:29.421Z,48.12
2018-10-05T23:38:54.916Z,47.84
2018-10-05T23:41:20.415Z,48.19
2018-10-05T23:43:45.911Z,48.10
2018-10-05T23:46:11.411Z,47.80
2018-10-05T23:48:36.901Z,48.01
2018-10-05T23:51:02.400Z,48.12
2018-10-05T23:53:27.888Z,48.15
2018-10-05T23:55:53.388Z,47.52
2018-10-05T23:58:18.885Z,47.65
